Flight Track Log - Related Links

Times and Time Zones

All times are in EDT time to prevent confusion due to time zone crossing. See the N612CT flight status page for this flight to view local times or setup timezone preferences in your user account.

Time Position Orientation Groundspeed Altitude Reporting Facility
EDT Latitude Longitude Course Direction KTS MPH feet Rate Location/Type
Mon 08:11:23 29.0169 -82.3750 176° South 114 131 1,400  Level Jacksonville Center
Mon 08:12:06 28.9919 -82.3728 176° South 125 144 1,900 699 Climbing Jacksonville Center
Mon 08:13:06 28.9564 -82.3586 161° South 134 154 2,600 744 Climbing Jacksonville Center
Mon 08:14:07 28.9208 -82.3447 161° South 132 152 3,400 738 Climbing Jacksonville Center
Mon 08:15:08 28.8833 -82.3331 165° South 134 154 4,100 750 Climbing Jacksonville Center
Mon 08:17:11 28.8167 -82.3000 157° South 140 161 5,700 721 Climbing Tampa TRACON
Mon 08:18:11 28.7667 -82.2833 164° South 145 167 6,300 700 Climbing Tampa TRACON
Mon 08:19:11 28.7333 -82.2833 180° South 145 167 7,100 730 Climbing Tampa TRACON
Mon 08:20:06 28.7000 -82.2667 156° South 145 167 7,700 645 Climbing Tampa TRACON
Mon 08:21:12 28.6500 -82.2500 164° South 149 171 8,400 619 Climbing Tampa TRACON
Mon 08:22:12 28.6167 -82.2333 156° South 152 175 9,000 300 Climbing Tampa TRACON
Mon 08:23:12 28.5667 -82.2167 164° South 171 197 9,000  Level Tampa TRACON
Mon 08:24:12 28.5167 -82.2000 164° South 179 206 9,000  Level Tampa TRACON
Mon 08:25:12 28.4667 -82.1833 164° South 180 207 9,000  Level Tampa TRACON
Mon 08:26:12 28.4167 -82.1667 164° South 179 206 9,000  Level Tampa TRACON
Mon 08:27:12 28.3667 -82.1500 164° South 179 206 9,000  Level Tampa TRACON
Mon 08:28:13 28.3333 -82.1333 156° South 179 206 9,000  Level Tampa TRACON
Mon 08:30:06 28.2361 -82.1042 165° South 159 183 9,000  Level Miami Center
Mon 08:31:06 28.1886 -82.0878 163° South 172 198 9,000  Level Miami Center
Mon 08:32:06 28.1414 -82.0692 161° South 182 209 9,000  Level Miami Center
Mon 08:33:06 28.0919 -82.0528 164° South 182 209 9,000  Level Miami Center
Mon 08:34:06 28.0467 -82.0367 163° South 182 209 9,000  Level Miami Center
Mon 08:35:06 27.9992 -82.0203 163° South 182 209 9,000  Level Miami Center
Mon 08:36:06 27.9472 -82.0181 178° South 182 209 9,000  Level Miami Center
Mon 08:37:06 27.8992 -82.0158 178° South 182 209 9,000  Level Miami Center
Mon 08:38:06 27.8492 -82.0158 180° South 176 203 9,000  Level Miami Center
Mon 08:39:06 27.7992 -82.0136 178° South 176 203 9,000  Level Miami Center
Mon 08:40:06 27.7472 -82.0114 178° South 181 208 9,000  Level Miami Center
Mon 08:41:06 27.7056 -82.0069 175° South 176 203 9,000  Level Miami Center
Mon 08:42:06 27.6492 -82.0069 180° South 176 203 9,000  Level Miami Center
Mon 08:43:06 27.6033 -82.0072 180° South 176 203 9,000  Level Miami Center
Mon 08:44:06 27.5533 -82.0050 178° South 176 203 9,000  Level Miami Center
Mon 08:45:06 27.5072 -82.0075 183° South 181 208 9,000  Level Miami Center
Mon 08:46:06 27.4594 -82.0053 178° South 181 208 9,000  Level Miami Center
Mon 08:47:06 27.4092 -82.0056 180° South 181 208 9,000 -50 Level Miami Center
Mon 08:48:06 27.3592 -82.0033 178° South 181 208 8,900 -350 Descending Miami Center
Mon 08:49:06 27.3069 -82.0033 180° South 181 208 8,300 -600 Descending Miami Center
Mon 08:50:06 27.2508 -82.0006 177° South 192 221 7,700 -550 Descending Miami Center
Mon 08:51:06 27.1986 -81.9983 178° South 197 227 7,200 -350 Descending Miami Center
Mon 08:52:06 27.1486 -81.9961 178° South 197 227 7,000 -100 Descending Miami Center
Mon 08:53:06 27.1028 -81.9964 180° South 186 214 7,000  Level Miami Center
Mon 08:54:06 27.0569 -81.9944 178° South 176 203 7,000  Level Miami Center
Mon 08:55:06 27.0131 -81.9947 180° South 171 197 7,000  Level Miami Center
Mon 08:56:06 26.9611 -81.9925 178° South 171 197 7,000  Level Miami Center
Mon 08:57:06 26.9150 -81.9906 178° South 171 197 7,000  Level Miami Center
Mon 08:58:06 26.8697 -81.9769 165° South 171 197 7,000  Level Miami Center
Mon 09:00:00 26.7870 -81.9513 165° South  Level FlightAware Approximate
Mon 09:07:00 26.4811 -81.8620 167° South  Level FlightAware Approximate
Mon 09:08:00 26.4371 -81.8509 167° South  Level FlightAware Approximate
Mon 09:09:00 26.3935 -81.8377 165° South  Level FlightAware Approximate
Mon 09:10:00 26.3500 -81.8243 165° South  Level FlightAware Approximate
Mon 09:11:00 26.3064 -81.8109 165° South  Level FlightAware Approximate
Mon 09:12:00 26.2629 -81.7975 165° South  Level FlightAware Approximate
Mon 09:13:00 26.2194 -81.7842 165° South  Level FlightAware Approximate
Mon 09:14:00 26.1753 -81.7730 167° South  Level FlightAware Approximate
Mon 09:15:00 26.1500 -81.7667 167° South  Level FlightAware Approximate
Mon 09:16:00 26.1524 -81.7756 167° South  Level Estimated
Mon 09:17:00 26.1524 -81.7756 167° South  Level Estimated
Mon 09:18:00 26.1524 -81.7756 167° South  Level Estimated
Mon 09:19:00 26.1524 -81.7756 167° South  Level Estimated
Mon 09:20:00 26.1524 -81.7756 167° South  Level Estimated
Mon 09:21:00 26.1524 -81.7756 167° South  Level Estimated
Mon 09:22:00 26.1524 -81.7756 167° South  Level Estimated
Mon 09:23:00 26.1524 -81.7756 167° South  Level Estimated
Mon 09:24:00 26.1524 -81.7756 167° South  Level Estimated
Mon 09:25:00 26.1524 -81.7756 167° South  Level Estimated
Mon 09:26:00 26.1524 -81.7756 167° South  Level Estimated
Mon 09:27:00 26.1524 -81.7756 167° South  Level Estimated
Mon 09:28:00 26.1524 -81.7756 167° South  Level Estimated
Mon 09:29:00 26.1524 -81.7756 167° South  Level Estimated
Mon 09:30:00 26.1524 -81.7756 167° South  Level Estimated

Login

Don't have an account? Register now (free) for customized features, flight alerts, and more!